createdAt,value
2023-03-03T00:01:33.436Z,39.10
2023-03-03T00:04:02.315Z,39.20
2023-03-03T00:06:31.091Z,39.20
2023-03-03T00:08:59.946Z,39.20
2023-03-03T00:11:29.111Z,39.20
2023-03-03T00:13:58.620Z,39.20
2023-03-03T00:16:33.131Z,39.30
2023-03-03T00:19:02.372Z,39.30
2023-03-03T00:21:34.008Z,39.30
2023-03-03T00:24:20.533Z,39.30
2023-03-03T00:26:51.024Z,39.20
2023-03-03T00:29:35.904Z,39.20
2023-03-03T00:32:26.934Z,39.20
2023-03-03T00:34:58.132Z,39.20
2023-03-03T00:37:35.967Z,39.10
2023-03-03T00:40:25.338Z,39.10
2023-03-03T00:42:57.027Z,39.20
2023-03-03T00:45:33.669Z,39.20
2023-03-03T00:48:23.576Z,39.20
2023-03-03T00:50:53.601Z,39.30
2023-03-03T00:53:24.274Z,39.30
2023-03-03T00:55:54.494Z,39.30
2023-03-03T00:58:25.988Z,39.30
2023-03-03T01:00:58.950Z,39.40
2023-03-03T01:03:39.185Z,39.40
2023-03-03T01:06:08.621Z,39.40
2023-03-03T01:08:37.484Z,39.40
2023-03-03T01:11:11.112Z,39.40
2023-03-03T01:13:43.363Z,40.00
2023-03-03T01:16:12.293Z,39.30
2023-03-03T01:18:42.830Z,39.40
2023-03-03T01:21:12.171Z,39.40
2023-03-03T01:23:41.097Z,39.40
2023-03-03T01:26:10.717Z,39.40
2023-03-03T01:28:40.777Z,39.30
2023-03-03T01:31:09.895Z,39.30
2023-03-03T01:33:38.962Z,39.40
2023-03-03T01:36:09.661Z,39.40
2023-03-03T01:38:39.676Z,39.40
2023-03-03T01:41:08.367Z,39.30
2023-03-03T01:43:44.899Z,39.30
2023-03-03T01:46:50.308Z,39.30
2023-03-03T01:49:23.475Z,39.40
2023-03-03T01:51:56.949Z,39.40
2023-03-03T01:54:31.165Z,39.30
2023-03-03T01:57:04.941Z,39.40
2023-03-03T01:59:37.312Z,39.30
2023-03-03T02:02:06.632Z,39.40
2023-03-03T02:04:36.821Z,39.30
2023-03-03T02:07:11.201Z,39.30
2023-03-03T02:09:52.918Z,39.30
2023-03-03T02:12:27.641Z,39.30
2023-03-03T02:14:56.259Z,39.20
2023-03-03T02:17:25.110Z,39.20
2023-03-03T02:20:04.781Z,39.30
2023-03-03T02:22:44.721Z,39.30
2023-03-03T02:25:23.519Z,39.40
2023-03-03T02:27:56.493Z,39.30
2023-03-03T02:30:26.928Z,39.20
2023-03-03T02:32:55.599Z,39.20
2023-03-03T02:35:32.295Z,39.20
2023-03-03T02:38:20.759Z,39.30
2023-03-03T02:41:17.005Z,39.30
2023-03-03T02:43:54.883Z,39.20
2023-03-03T02:46:23.727Z,39.30
2023-03-03T02:48:52.411Z,39.20
2023-03-03T02:51:21.359Z,39.30
2023-03-03T02:53:49.973Z,39.40
2023-03-03T02:56:19.369Z,39.30
2023-03-03T02:58:49.440Z,39.40
2023-03-03T03:01:19.518Z,39.50
2023-03-03T03:03:48.632Z,39.50
2023-03-03T03:06:21.664Z,39.50
2023-03-03T03:08:50.386Z,39.40
2023-03-03T03:11:19.089Z,39.50
2023-03-03T03:13:49.067Z,39.50
2023-03-03T03:16:18.239Z,39.40
2023-03-03T03:18:46.939Z,39.40
2023-03-03T03:21:17.333Z,39.40
2023-03-03T03:23:46.488Z,39.40
2023-03-03T03:26:15.653Z,39.30
2023-03-03T03:28:45.466Z,39.30
2023-03-03T03:31:16.408Z,39.20
2023-03-03T03:33:45.593Z,39.20
2023-03-03T03:36:15.228Z,39.20
2023-03-03T03:38:44.388Z,39.20
2023-03-03T03:41:14.589Z,39.10
2023-03-03T03:43:43.379Z,39.10
2023-03-03T03:46:12.154Z,39.10
2023-03-03T03:48:42.320Z,39.10
2023-03-03T03:51:13.911Z,39.20
2023-03-03T03:53:43.680Z,39.20
2023-03-03T03:56:12.427Z,39.30
2023-03-03T03:58:43.007Z,39.30
2023-03-03T04:01:15.298Z,39.30
2023-03-03T04:03:50.221Z,39.30
2023-03-03T04:06:22.564Z,39.40
2023-03-03T04:08:52.005Z,39.40
2023-03-03T04:11:23.470Z,39.30
2023-03-03T04:13:52.174Z,39.30
2023-03-03T04:16:21.192Z,39.30
2023-03-03T04:18:51.285Z,39.30
2023-03-03T04:21:20.431Z,39.30
2023-03-03T04:23:49.217Z,39.30
2023-03-03T04:26:19.216Z,39.30
2023-03-03T04:28:49.176Z,39.30
2023-03-03T04:31:18.033Z,39.20
2023-03-03T04:33:46.800Z,39.30
2023-03-03T04:36:16.895Z,39.30
2023-03-03T04:38:45.667Z,39.30
2023-03-03T04:41:14.607Z,39.30
2023-03-03T04:43:43.735Z,39.20
2023-03-03T04:46:14.630Z,39.10
2023-03-03T04:48:43.477Z,39.10
2023-03-03T04:51:13.100Z,39.10
2023-03-03T04:53:43.262Z,39.10
2023-03-03T04:56:12.275Z,39.20
2023-03-03T04:58:41.544Z,39.20
2023-03-03T05:01:14.711Z,39.20
2023-03-03T05:03:44.948Z,39.20
2023-03-03T05:06:14.364Z,39.20
2023-03-03T05:08:44.460Z,39.20
2023-03-03T05:11:14.086Z,39.30
2023-03-03T05:13:42.904Z,39.20
2023-03-03T05:16:11.585Z,39.20
2023-03-03T05:18:40.275Z,39.20
2023-03-03T05:21:09.041Z,39.30
2023-03-03T05:23:37.707Z,39.20
2023-03-03T05:26:08.059Z,39.20
2023-03-03T05:28:36.667Z,39.20
2023-03-03T05:31:05.647Z,39.20
2023-03-03T05:33:34.379Z,39.20
2023-03-03T05:36:03.018Z,39.20
2023-03-03T05:38:31.653Z,39.20
2023-03-03T05:41:00.217Z,39.20
2023-03-03T05:43:30.458Z,39.20
2023-03-03T05:46:01.019Z,39.20
2023-03-03T05:48:29.854Z,39.20
2023-03-03T05:51:00.549Z,39.20
2023-03-03T05:53:29.989Z,39.10
2023-03-03T05:55:58.574Z,39.10
2023-03-03T05:58:27.510Z,39.20
2023-03-03T06:00:57.598Z,39.10
2023-03-03T06:03:26.346Z,39.10
2023-03-03T06:05:55.084Z,39.10
2023-03-03T06:08:23.686Z,39.10
2023-03-03T06:10:52.324Z,39.20
2023-03-03T06:13:22.244Z,39.20
2023-03-03T06:15:50.931Z,39.20
2023-03-03T06:18:20.974Z,39.20
2023-03-03T06:20:53.890Z,39.20
2023-03-03T06:23:23.174Z,39.20
2023-03-03T06:25:51.870Z,39.20
2023-03-03T06:28:20.986Z,39.30
2023-03-03T06:30:49.717Z,39.30
2023-03-03T06:33:18.355Z,39.30
2023-03-03T06:35:51.670Z,39.40
2023-03-03T06:38:20.746Z,39.40
2023-03-03T06:40:49.664Z,39.30
2023-03-03T06:43:18.311Z,39.20
2023-03-03T06:45:47.670Z,39.20
2023-03-03T06:48:16.309Z,39.10
2023-03-03T06:50:45.456Z,39.10
2023-03-03T06:53:18.121Z,39.10
2023-03-03T06:55:47.534Z,39.20
2023-03-03T06:58:18.833Z,39.30
2023-03-03T07:00:54.982Z,39.40
2023-03-03T07:03:25.634Z,39.60
2023-03-03T07:05:54.255Z,39.60
2023-03-03T07:08:26.013Z,39.60
2023-03-03T07:10:55.402Z,39.70
2023-03-03T07:13:26.820Z,39.60
2023-03-03T07:15:57.154Z,39.70
2023-03-03T07:18:39.150Z,39.70
2023-03-03T07:21:32.416Z,39.90
2023-03-03T07:24:18.671Z,40.00
2023-03-03T07:26:47.475Z,40.00
2023-03-03T07:29:25.009Z,40.00
2023-03-03T07:31:55.493Z,40.20
2023-03-03T07:34:26.546Z,40.20
2023-03-03T07:36:57.314Z,40.40
2023-03-03T07:39:46.722Z,40.50
2023-03-03T07:42:23.775Z,40.70
2023-03-03T07:45:04.393Z,40.80
2023-03-03T07:47:38.203Z,40.60
2023-03-03T07:50:17.181Z,40.90
2023-03-03T07:52:56.943Z,41.00
2023-03-03T07:55:35.685Z,41.00
2023-03-03T07:58:23.547Z,41.20
2023-03-03T08:01:35.490Z,41.20
2023-03-03T08:04:08.266Z,41.10
2023-03-03T08:06:48.389Z,40.90
2023-03-03T08:09:38.949Z,41.20
2023-03-03T08:12:42.856Z,41.20
2023-03-03T08:15:32.807Z,41.20
2023-03-03T08:18:02.811Z,41.20
2023-03-03T08:20:46.662Z,40.90
2023-03-03T08:23:16.868Z,41.30
2023-03-03T08:25:46.200Z,41.00
2023-03-03T08:28:16.986Z,41.20
2023-03-03T08:30:46.393Z,41.20
2023-03-03T08:33:16.440Z,41.20
2023-03-03T08:35:45.791Z,41.30
2023-03-03T08:38:16.864Z,41.40
2023-03-03T08:40:45.782Z,41.40
2023-03-03T08:43:17.468Z,41.50
2023-03-03T08:45:48.452Z,41.60
2023-03-03T08:48:17.733Z,41.40
2023-03-03T08:50:48.167Z,41.50
2023-03-03T08:53:17.746Z,41.60
2023-03-03T08:55:47.386Z,41.60
2023-03-03T08:58:18.629Z,41.50
2023-03-03T09:00:50.221Z,41.60
2023-03-03T09:03:19.786Z,41.50
2023-03-03T09:05:48.735Z,41.50
2023-03-03T09:08:17.556Z,41.50
2023-03-03T09:10:46.204Z,41.60
2023-03-03T09:13:20.054Z,42.30
2023-03-03T09:15:50.573Z,41.70
2023-03-03T09:18:22.530Z,41.60
2023-03-03T09:20:52.924Z,41.60
2023-03-03T09:23:35.930Z,41.60
2023-03-03T09:26:28.217Z,41.70
2023-03-03T09:29:20.121Z,41.80
2023-03-03T09:31:52.857Z,41.80
2023-03-03T09:34:25.074Z,41.70
2023-03-03T09:36:55.397Z,41.80
2023-03-03T09:39:26.433Z,41.90
2023-03-03T09:42:37.017Z,42.00
2023-03-03T09:45:53.954Z,42.30
2023-03-03T09:48:54.371Z,42.40
2023-03-03T09:52:00.906Z,42.30
2023-03-03T09:54:52.545Z,42.10
2023-03-03T09:57:32.795Z,42.10
2023-03-03T10:00:24.298Z,42.10
2023-03-03T10:03:16.469Z,42.00
2023-03-03T10:05:54.636Z,41.80
2023-03-03T10:08:38.451Z,41.70
2023-03-03T10:11:20.055Z,41.60
2023-03-03T10:14:25.530Z,41.60
2023-03-03T10:17:15.646Z,41.60
2023-03-03T10:19:55.857Z,41.60
2023-03-03T10:22:35.979Z,41.60
2023-03-03T10:25:17.667Z,41.80
2023-03-03T10:28:20.008Z,41.70
2023-03-03T10:31:10.666Z,41.80
2023-03-03T10:33:51.227Z,41.90
2023-03-03T10:36:48.184Z,41.90
2023-03-03T10:39:34.691Z,41.90
2023-03-03T10:42:48.319Z,41.80
2023-03-03T10:45:45.225Z,41.80
2023-03-03T10:48:40.138Z,41.70
2023-03-03T10:51:21.380Z,41.70
2023-03-03T10:54:11.911Z,41.60
2023-03-03T10:56:53.547Z,41.80
2023-03-03T10:59:41.346Z,41.70
2023-03-03T11:02:19.649Z,41.70
2023-03-03T11:05:22.003Z,41.60
2023-03-03T11:07:55.137Z,41.70
2023-03-03T11:10:38.686Z,41.50
2023-03-03T11:13:17.970Z,41.70
2023-03-03T11:16:01.916Z,41.70
2023-03-03T11:18:42.342Z,41.70
2023-03-03T11:21:18.150Z,41.80
2023-03-03T11:24:02.267Z,41.70
2023-03-03T11:26:51.087Z,41.80
2023-03-03T11:29:42.692Z,42.00
2023-03-03T11:32:25.297Z,42.00
2023-03-03T11:35:08.688Z,42.00
2023-03-03T11:37:43.352Z,41.90
2023-03-03T11:40:20.471Z,41.90
2023-03-03T11:43:03.250Z,42.00
2023-03-03T11:45:41.738Z,42.10
2023-03-03T11:48:19.155Z,42.10
2023-03-03T11:50:56.999Z,42.00
2023-03-03T11:53:55.740Z,42.10
2023-03-03T11:56:29.548Z,42.10
2023-03-03T11:59:20.824Z,42.00
2023-03-03T12:01:57.728Z,42.00
2023-03-03T12:04:33.542Z,42.10
2023-03-03T12:07:21.371Z,42.10
2023-03-03T12:10:03.417Z,42.10
2023-03-03T12:12:38.483Z,42.10
2023-03-03T12:15:24.424Z,42.00
2023-03-03T12:18:11.642Z,42.20
2023-03-03T12:20:51.088Z,42.10
2023-03-03T12:24:04.927Z,42.10
2023-03-03T12:26:46.240Z,42.20
2023-03-03T12:29:28.848Z,42.20
2023-03-03T12:32:09.218Z,42.20
2023-03-03T12:34:45.816Z,42.20
2023-03-03T12:37:32.309Z,42.20
2023-03-03T12:40:10.508Z,42.40
2023-03-03T12:42:54.702Z,42.30
2023-03-03T12:45:37.773Z,42.30
2023-03-03T12:48:17.196Z,42.40
2023-03-03T12:50:59.201Z,42.20
2023-03-03T12:54:03.643Z,42.20
2023-03-03T12:56:36.805Z,42.50
2023-03-03T12:59:15.506Z,42.20
2023-03-03T13:02:05.043Z,42.20
2023-03-03T13:04:40.248Z,42.30
2023-03-03T13:07:18.296Z,42.30
2023-03-03T13:10:05.999Z,42.30
2023-03-03T13:12:41.829Z,42.40
2023-03-03T13:15:18.373Z,42.30
2023-03-03T13:18:02.362Z,42.20
2023-03-03T13:20:42.596Z,42.30
2023-03-03T13:23:36.342Z,42.20
2023-03-03T13:26:12.064Z,42.20
2023-03-03T13:28:44.783Z,42.30
2023-03-03T13:31:19.954Z,42.20
2023-03-03T13:33:55.934Z,42.20
2023-03-03T13:36:31.567Z,42.10
2023-03-03T13:39:05.904Z,42.10
2023-03-03T13:41:46.937Z,42.10
2023-03-03T13:44:22.326Z,42.10
2023-03-03T13:47:04.405Z,42.10
2023-03-03T13:49:55.056Z,42.10
2023-03-03T13:52:27.623Z,42.10
2023-03-03T13:55:15.558Z,42.10
2023-03-03T13:58:01.227Z,42.10
2023-03-03T14:00:46.007Z,42.10
2023-03-03T14:03:57.785Z,42.10
2023-03-03T14:06:29.385Z,42.20
2023-03-03T14:09:40.346Z,42.00
2023-03-03T14:12:20.142Z,42.10
2023-03-03T14:15:00.926Z,42.00
2023-03-03T14:17:38.680Z,42.10
2023-03-03T14:20:22.984Z,41.90
2023-03-03T14:22:56.165Z,42.00
2023-03-03T14:25:26.331Z,41.90
2023-03-03T14:28:11.092Z,41.90
2023-03-03T14:30:42.224Z,42.00
2023-03-03T14:33:22.468Z,41.90
2023-03-03T14:36:03.487Z,41.80
2023-03-03T14:38:48.439Z,42.00
2023-03-03T14:41:40.960Z,41.80
2023-03-03T14:44:31.442Z,41.90
2023-03-03T14:47:13.868Z,41.90
2023-03-03T14:49:42.906Z,41.80
2023-03-03T14:52:23.929Z,41.80
2023-03-03T14:54:55.034Z,41.90
2023-03-03T14:57:46.454Z,41.90
2023-03-03T15:00:36.367Z,41.70
2023-03-03T15:03:22.660Z,41.60
2023-03-03T15:05:52.966Z,41.60
2023-03-03T15:08:33.032Z,41.50
2023-03-03T15:11:20.868Z,41.40
2023-03-03T15:13:50.981Z,41.40
2023-03-03T15:16:23.520Z,41.50
2023-03-03T15:19:19.010Z,41.50
2023-03-03T15:22:01.486Z,41.30
2023-03-03T15:24:41.539Z,41.40
2023-03-03T15:27:17.901Z,41.30
2023-03-03T15:30:05.136Z,41.20
2023-03-03T15:32:42.499Z,41.30
2023-03-03T15:35:23.912Z,41.40
2023-03-03T15:37:59.777Z,41.20
2023-03-03T15:40:31.335Z,41.30
2023-03-03T15:43:10.681Z,41.30
2023-03-03T15:45:48.576Z,41.30
2023-03-03T15:48:46.264Z,41.30
2023-03-03T15:51:33.804Z,41.40
2023-03-03T15:54:27.808Z,41.40
2023-03-03T15:57:00.196Z,41.30
2023-03-03T16:00:33.576Z,41.30
2023-03-03T16:03:13.989Z,41.30
2023-03-03T16:05:53.753Z,41.30
2023-03-03T16:08:31.976Z,41.90
2023-03-03T16:11:10.034Z,41.30
2023-03-03T16:13:59.417Z,41.30
2023-03-03T16:16:40.728Z,41.30
2023-03-03T16:19:32.247Z,41.40
2023-03-03T16:22:42.083Z,41.40
2023-03-03T16:25:41.681Z,41.40
2023-03-03T16:28:18.517Z,41.40
2023-03-03T16:30:55.220Z,41.40
2023-03-03T16:33:33.786Z,41.40
2023-03-03T16:36:14.755Z,41.30
2023-03-03T16:38:47.179Z,41.40
2023-03-03T16:41:25.796Z,41.40
2023-03-03T16:44:06.374Z,41.40
2023-03-03T16:46:40.234Z,41.40
2023-03-03T16:49:19.773Z,41.40
2023-03-03T16:51:54.728Z,41.40
2023-03-03T16:54:36.317Z,41.40
2023-03-03T16:57:17.909Z,41.40
2023-03-03T17:00:05.404Z,41.40
2023-03-03T17:03:00.345Z,41.40
2023-03-03T17:05:45.868Z,41.40
2023-03-03T17:08:56.499Z,41.40
2023-03-03T17:11:36.472Z,41.40
2023-03-03T17:14:25.854Z,41.30
2023-03-03T17:17:01.179Z,41.30
2023-03-03T17:19:50.769Z,41.30
2023-03-03T17:22:28.358Z,41.20
2023-03-03T17:25:10.806Z,41.20
2023-03-03T17:28:07.055Z,41.10
2023-03-03T17:30:43.866Z,41.10
2023-03-03T17:33:53.065Z,41.20
2023-03-03T17:36:35.378Z,41.20
2023-03-03T17:39:37.119Z,41.10
2023-03-03T17:42:17.270Z,41.10
2023-03-03T17:45:01.827Z,41.10
2023-03-03T17:47:47.506Z,41.10
2023-03-03T17:50:53.369Z,41.80
2023-03-03T17:53:45.530Z,41.10
2023-03-03T17:56:20.386Z,41.10
2023-03-03T17:59:11.142Z,41.10
2023-03-03T18:02:15.231Z,41.20
2023-03-03T18:05:14.158Z,41.20
2023-03-03T18:07:54.168Z,41.20
2023-03-03T18:10:53.247Z,41.20
2023-03-03T18:13:50.486Z,41.20
2023-03-03T18:16:33.845Z,41.20
2023-03-03T18:19:26.383Z,41.00
2023-03-03T18:22:01.149Z,40.90
2023-03-03T18:24:38.782Z,40.90
2023-03-03T18:27:33.208Z,40.80
2023-03-03T18:30:35.306Z,40.90
2023-03-03T18:33:11.228Z,40.80
2023-03-03T18:35:43.434Z,40.70
2023-03-03T18:38:34.934Z,40.70
2023-03-03T18:41:05.207Z,40.60
2023-03-03T18:44:00.368Z,40.80
2023-03-03T18:46:49.683Z,40.60
2023-03-03T18:49:20.638Z,40.60
2023-03-03T18:52:18.092Z,40.60
2023-03-03T18:55:26.217Z,40.60
2023-03-03T18:58:30.196Z,40.60
2023-03-03T19:01:04.115Z,40.60
2023-03-03T19:03:37.507Z,40.70
2023-03-03T19:06:11.058Z,40.60
2023-03-03T19:08:56.339Z,40.60
2023-03-03T19:11:40.939Z,40.70
2023-03-03T19:14:41.354Z,41.30
2023-03-03T19:17:49.959Z,40.70
2023-03-03T19:20:19.334Z,40.60
2023-03-03T19:22:51.533Z,40.70
2023-03-03T19:25:26.001Z,40.70
2023-03-03T19:28:13.059Z,40.70
2023-03-03T19:30:48.945Z,40.80
2023-03-03T19:33:34.941Z,40.80
2023-03-03T19:36:23.243Z,40.60
2023-03-03T19:39:05.523Z,40.60
2023-03-03T19:41:52.516Z,40.70
2023-03-03T19:44:46.369Z,40.70
2023-03-03T19:47:27.793Z,40.70
2023-03-03T19:50:14.470Z,40.80
2023-03-03T19:52:49.418Z,40.80
2023-03-03T19:55:30.704Z,40.70
2023-03-03T19:58:23.094Z,40.70
2023-03-03T20:00:59.993Z,40.60
2023-03-03T20:04:07.311Z,40.70
2023-03-03T20:06:51.288Z,40.60
2023-03-03T20:09:32.481Z,40.60
2023-03-03T20:12:23.930Z,40.60
2023-03-03T20:15:01.047Z,40.60
2023-03-03T20:17:54.479Z,40.60
2023-03-03T20:20:50.972Z,41.30
2023-03-03T20:23:25.036Z,40.60
2023-03-03T20:26:01.793Z,40.50
2023-03-03T20:28:58.082Z,40.50
2023-03-03T20:31:35.667Z,40.50
2023-03-03T20:34:15.446Z,40.60
2023-03-03T20:36:57.710Z,40.60
2023-03-03T20:39:51.659Z,40.60
2023-03-03T20:42:33.952Z,40.60
2023-03-03T20:45:26.010Z,40.60
2023-03-03T20:48:12.056Z,40.60
2023-03-03T20:50:55.172Z,40.70
2023-03-03T20:53:29.794Z,40.80
2023-03-03T20:56:05.908Z,40.70
2023-03-03T20:58:50.796Z,40.70
2023-03-03T21:01:33.144Z,40.60
2023-03-03T21:04:22.340Z,40.60
2023-03-03T21:06:51.455Z,40.60
2023-03-03T21:09:31.805Z,40.60
2023-03-03T21:12:03.280Z,40.50
2023-03-03T21:14:36.074Z,40.50
2023-03-03T21:17:27.739Z,40.50
2023-03-03T21:19:56.344Z,40.40
2023-03-03T21:22:25.640Z,40.40
2023-03-03T21:24:56.485Z,40.40
2023-03-03T21:27:30.442Z,40.40
2023-03-03T21:30:12.462Z,40.50
2023-03-03T21:32:44.966Z,40.60
2023-03-03T21:35:15.912Z,40.60
2023-03-03T21:37:49.167Z,40.50
2023-03-03T21:40:23.387Z,40.50
2023-03-03T21:42:53.465Z,40.50
2023-03-03T21:45:23.737Z,40.60
2023-03-03T21:47:54.953Z,40.60
2023-03-03T21:50:25.935Z,40.70
2023-03-03T21:52:56.218Z,40.70
2023-03-03T21:55:26.679Z,40.60
2023-03-03T21:57:55.509Z,40.60
2023-03-03T22:00:24.611Z,40.60
2023-03-03T22:02:55.391Z,40.60
2023-03-03T22:05:24.207Z,40.60
2023-03-03T22:07:52.803Z,40.60
2023-03-03T22:10:21.514Z,40.70
2023-03-03T22:12:50.121Z,40.60
2023-03-03T22:15:18.927Z,40.60
2023-03-03T22:17:47.530Z,40.60
2023-03-03T22:20:18.139Z,40.70
2023-03-03T22:22:47.564Z,40.90
2023-03-03T22:25:16.420Z,40.90
2023-03-03T22:27:44.967Z,40.90
2023-03-03T22:30:14.972Z,40.90
2023-03-03T22:32:43.627Z,40.90
2023-03-03T22:35:12.274Z,40.90
2023-03-03T22:37:42.296Z,40.90
2023-03-03T22:40:13.055Z,40.80
2023-03-03T22:42:41.728Z,40.80
2023-03-03T22:45:11.715Z,40.80
2023-03-03T22:47:40.435Z,40.70
2023-03-03T22:50:11.496Z,40.60
2023-03-03T22:52:41.650Z,40.60
2023-03-03T22:55:11.346Z,40.60
2023-03-03T22:57:39.980Z,40.50
2023-03-03T23:00:13.226Z,40.50
2023-03-03T23:02:43.389Z,40.50
2023-03-03T23:05:12.044Z,40.50
2023-03-03T23:07:42.161Z,40.50
2023-03-03T23:10:14.834Z,40.60
2023-03-03T23:12:43.625Z,40.60
2023-03-03T23:15:14.271Z,40.70
2023-03-03T23:17:43.884Z,40.80
2023-03-03T23:20:15.580Z,40.70
2023-03-03T23:22:45.641Z,40.70
2023-03-03T23:25:15.294Z,40.70
2023-03-03T23:27:46.064Z,40.70
2023-03-03T23:30:17.365Z,40.70
2023-03-03T23:32:46.668Z,40.80
2023-03-03T23:35:15.672Z,40.70
2023-03-03T23:37:46.113Z,40.60
2023-03-03T23:40:16.391Z,40.70
2023-03-03T23:42:45.438Z,40.70
2023-03-03T23:45:14.454Z,40.70
2023-03-03T23:47:43.564Z,40.70
2023-03-03T23:50:14.137Z,40.80
2023-03-03T23:52:42.801Z,40.80
2023-03-03T23:55:12.978Z,40.80
2023-03-03T23:57:41.776Z,40.90
